createdAt,value
2022-09-22T00:01:16.420Z,3.23
2022-09-22T00:05:17.846Z,3.33
2022-09-22T00:09:20.830Z,3.13
2022-09-22T00:13:22.202Z,2.87
2022-09-22T00:17:23.514Z,3.23
2022-09-22T00:21:24.999Z,2.83
2022-09-22T00:25:27.551Z,2.93
2022-09-22T00:29:29.963Z,2.83
2022-09-22T00:33:31.342Z,2.80
2022-09-22T00:37:33.118Z,3.27
2022-09-22T00:41:37.863Z,2.87
2022-09-22T00:45:39.330Z,3.00
2022-09-22T00:49:43.618Z,2.70
2022-09-22T00:53:45.067Z,3.00
2022-09-22T00:57:47.938Z,2.90
2022-09-22T01:01:49.414Z,2.87
2022-09-22T01:05:51.985Z,2.63
2022-09-22T01:09:53.263Z,2.70
2022-09-22T01:14:01.378Z,2.70
2022-09-22T01:18:08.606Z,2.80
2022-09-22T01:22:15.507Z,2.80
2022-09-22T01:26:35.307Z,2.30
2022-09-22T01:30:40.900Z,2.57
2022-09-22T01:34:45.526Z,2.60
2022-09-22T01:38:51.058Z,2.57
2022-09-22T01:42:53.908Z,2.87
2022-09-22T01:47:00.967Z,3.00
2022-09-22T01:51:05.703Z,3.70
2022-09-22T01:55:08.918Z,4.50
2022-09-22T01:59:11.316Z,4.10
2022-09-22T02:03:15.167Z,2.83
2022-09-22T02:07:19.083Z,2.40
2022-09-22T02:11:21.322Z,2.73
2022-09-22T02:15:22.742Z,2.57
2022-09-22T02:19:28.926Z,2.37
2022-09-22T02:23:31.150Z,2.80
2022-09-22T02:27:32.474Z,3.23
2022-09-22T02:31:36.057Z,3.47
2022-09-22T02:35:39.554Z,3.67
2022-09-22T02:39:42.671Z,3.77
2022-09-22T02:43:47.634Z,3.23
2022-09-22T02:47:51.290Z,3.20
2022-09-22T02:51:54.095Z,3.50
2022-09-22T02:55:55.359Z,4.20
2022-09-22T02:59:56.590Z,3.50
2022-09-22T03:03:57.818Z,4.23
2022-09-22T03:08:00.682Z,3.47
2022-09-22T03:12:02.127Z,4.23
2022-09-22T03:16:03.450Z,5.00
2022-09-22T03:20:05.463Z,5.43
2022-09-22T03:24:08.194Z,8.00
2022-09-22T03:28:09.415Z,8.97
2022-09-22T03:32:11.340Z,8.70
2022-09-22T03:36:12.736Z,7.47
2022-09-22T03:40:15.686Z,6.43
2022-09-22T03:44:16.923Z,6.57
2022-09-22T03:48:18.139Z,5.00
2022-09-22T03:52:19.387Z,6.47
2022-09-22T03:56:21.991Z,6.63
2022-09-22T04:00:23.514Z,7.40
2022-09-22T04:04:24.757Z,7.20
2022-09-22T04:08:26.146Z,6.53
2022-09-22T04:12:28.898Z,5.60
2022-09-22T04:16:30.358Z,5.60
2022-09-22T04:20:31.772Z,5.10
2022-09-22T04:24:33.247Z,4.23
2022-09-22T04:28:36.115Z,4.17
2022-09-22T04:32:37.335Z,3.53
2022-09-22T04:36:38.650Z,3.50
2022-09-22T04:40:40.112Z,4.67
2022-09-22T04:44:42.701Z,5.60
2022-09-22T04:48:43.897Z,5.63
2022-09-22T04:52:45.827Z,5.37
2022-09-22T04:56:47.235Z,5.13
2022-09-22T05:00:49.902Z,4.60
2022-09-22T05:04:51.148Z,5.20
2022-09-22T05:08:52.368Z,4.50
2022-09-22T05:12:53.735Z,4.90
2022-09-22T05:16:56.441Z,5.03
2022-09-22T05:20:57.825Z,4.83
2022-09-22T05:24:59.266Z,4.77
2022-09-22T05:29:00.510Z,5.20
2022-09-22T05:33:03.312Z,4.77
2022-09-22T05:37:04.558Z,4.70
2022-09-22T05:41:06.071Z,4.87
2022-09-22T05:45:08.002Z,4.43
2022-09-22T05:49:10.737Z,4.63
2022-09-22T05:53:12.424Z,4.37
2022-09-22T05:57:14.354Z,4.30
2022-09-22T06:01:15.637Z,4.80
2022-09-22T06:05:19.623Z,4.83
2022-09-22T06:09:20.929Z,5.47
2022-09-22T06:13:22.328Z,5.47
2022-09-22T06:17:23.753Z,5.53
2022-09-22T06:21:26.327Z,4.87
2022-09-22T06:25:27.578Z,4.87
2022-09-22T06:29:28.812Z,5.53
2022-09-22T06:33:30.141Z,4.50
2022-09-22T06:37:32.885Z,4.73
2022-09-22T06:41:34.304Z,4.53
2022-09-22T06:45:35.693Z,4.43
2022-09-22T06:49:37.147Z,4.83
2022-09-22T06:53:39.743Z,4.50
2022-09-22T06:57:41.117Z,4.70
2022-09-22T07:01:43.733Z,4.20
2022-09-22T07:05:51.671Z,4.20
2022-09-22T07:09:55.515Z,3.53
2022-09-22T07:13:56.997Z,3.60
2022-09-22T07:17:58.203Z,3.40
2022-09-22T07:21:59.427Z,3.10
2022-09-22T07:26:01.993Z,4.03
2022-09-22T07:30:03.999Z,6.60
2022-09-22T07:34:05.388Z,8.70
2022-09-22T07:38:06.609Z,8.70
2022-09-22T07:42:09.354Z,5.60
2022-09-22T07:46:10.625Z,4.23
2022-09-22T07:50:12.002Z,3.67
2022-09-22T07:54:13.378Z,3.07
2022-09-22T07:58:17.491Z,3.87
2022-09-22T08:02:18.895Z,3.63
2022-09-22T08:06:23.853Z,3.53
2022-09-22T08:10:25.459Z,3.80
2022-09-22T08:14:28.206Z,3.47
2022-09-22T08:18:29.607Z,2.93
2022-09-22T08:22:30.826Z,3.00
2022-09-22T08:26:32.342Z,2.60
2022-09-22T08:30:34.918Z,2.50
2022-09-22T08:34:36.139Z,2.40
2022-09-22T08:38:37.400Z,2.63
2022-09-22T08:42:39.732Z,2.07
2022-09-22T08:46:43.203Z,2.77
2022-09-22T08:50:47.530Z,2.77
2022-09-22T08:54:48.971Z,2.73
2022-09-22T08:58:53.340Z,2.40
2022-09-22T09:03:04.598Z,2.73
2022-09-22T09:07:10.365Z,2.63
2022-09-22T09:11:18.597Z,2.50
2022-09-22T09:15:26.473Z,2.80
2022-09-22T09:19:32.402Z,2.50
2022-09-22T09:28:01.529Z,2.50
2022-09-22T09:32:08.575Z,2.90
2022-09-22T09:36:14.028Z,2.60
2022-09-22T09:40:16.820Z,2.70
2022-09-22T09:44:20.816Z,2.63
2022-09-22T09:48:28.447Z,2.40
2022-09-22T09:52:31.243Z,2.70
2022-09-22T09:56:33.360Z,2.97
2022-09-22T10:00:35.414Z,3.00
2022-09-22T10:04:37.125Z,2.60
2022-09-22T10:08:43.752Z,3.17
2022-09-22T10:12:45.023Z,2.40
2022-09-22T10:16:51.080Z,2.50
2022-09-22T10:21:01.153Z,2.30
2022-09-22T10:25:04.076Z,2.60
2022-09-22T10:29:15.265Z,2.40
2022-09-22T10:33:17.359Z,2.30
2022-09-22T10:37:20.392Z,2.40
2022-09-22T10:41:24.160Z,2.43
2022-09-22T10:45:31.585Z,2.20
2022-09-22T10:49:42.329Z,2.10
2022-09-22T10:53:48.706Z,1.73
2022-09-22T10:58:07.752Z,1.60
2022-09-22T11:02:22.888Z,2.10
2022-09-22T11:06:31.529Z,2.60
2022-09-22T11:10:36.320Z,1.93
2022-09-22T11:14:44.875Z,1.70
2022-09-22T11:19:04.609Z,1.60
2022-09-22T11:23:20.953Z,1.70
2022-09-22T11:27:25.806Z,1.70
2022-09-22T11:31:36.380Z,1.50
2022-09-22T11:35:44.479Z,1.67
2022-09-22T11:39:51.701Z,2.97
2022-09-22T11:44:11.491Z,1.70
2022-09-22T11:48:19.207Z,1.93
2022-09-22T11:52:29.219Z,1.57
2022-09-22T11:56:41.647Z,1.40
2022-09-22T12:00:45.924Z,1.37
2022-09-22T12:04:49.293Z,1.53
2022-09-22T12:12:56.703Z,1.30
2022-09-22T12:17:00.870Z,0.97
2022-09-22T12:21:04.273Z,1.00
2022-09-22T12:25:20.820Z,1.30
2022-09-22T12:29:27.962Z,1.03
2022-09-22T12:33:29.630Z,1.60
2022-09-22T12:37:32.002Z,1.70
2022-09-22T12:41:42.038Z,1.37
2022-09-22T12:45:43.649Z,1.33
2022-09-22T12:49:47.796Z,1.13
2022-09-22T12:53:49.014Z,1.13
2022-09-22T12:57:52.131Z,1.10
2022-09-22T13:02:08.459Z,1.30
2022-09-22T13:06:24.627Z,1.40
2022-09-22T13:10:41.751Z,1.00
2022-09-22T13:15:01.141Z,1.30
2022-09-22T13:19:03.091Z,3.60
2022-09-22T13:23:04.742Z,2.50
2022-09-22T13:27:06.114Z,1.10
2022-09-22T13:31:12.895Z,1.20
2022-09-22T13:35:23.723Z,1.10
2022-09-22T13:39:26.713Z,1.00
2022-09-22T13:43:31.199Z,1.00
2022-09-22T13:47:34.698Z,1.00
2022-09-22T13:51:36.188Z,1.20
2022-09-22T13:55:37.512Z,0.83
2022-09-22T13:59:40.856Z,1.13
2022-09-22T14:03:43.747Z,1.20
2022-09-22T14:08:07.785Z,1.00
2022-09-22T14:12:08.459Z,1.33
2022-09-22T14:16:11.669Z,1.00
2022-09-22T14:20:15.257Z,1.10
2022-09-22T14:24:16.858Z,1.00
2022-09-22T14:28:19.838Z,1.20
2022-09-22T14:32:23.863Z,1.00
2022-09-22T14:36:26.486Z,1.00
2022-09-22T14:40:28.085Z,1.10
2022-09-22T14:44:36.751Z,1.03
2022-09-22T14:48:38.177Z,0.83
2022-09-22T14:52:42.562Z,1.10
2022-09-22T14:56:44.103Z,0.90
2022-09-22T15:00:53.356Z,1.10
2022-09-22T15:04:54.641Z,0.97
2022-09-22T15:08:59.537Z,0.80
2022-09-22T15:13:18.860Z,1.07
2022-09-22T15:17:36.663Z,0.90
2022-09-22T15:21:38.535Z,1.00
2022-09-22T15:25:41.217Z,1.00
2022-09-22T15:29:42.462Z,0.80
2022-09-22T15:33:44.650Z,1.17
2022-09-22T15:37:46.317Z,1.07
2022-09-22T15:41:49.426Z,1.07
2022-09-22T15:45:52.268Z,0.90
2022-09-22T15:49:53.590Z,1.10
2022-09-22T15:53:54.807Z,1.00
2022-09-22T15:57:57.441Z,1.40
2022-09-22T16:01:58.954Z,1.17
2022-09-22T16:06:02.232Z,1.10
2022-09-22T16:10:05.128Z,0.90
2022-09-22T16:14:07.862Z,1.00
2022-09-22T16:18:09.223Z,0.80
2022-09-22T16:22:10.417Z,0.90
2022-09-22T16:26:11.986Z,1.10
2022-09-22T16:30:14.643Z,1.00
2022-09-22T16:34:16.874Z,0.87
2022-09-22T16:38:18.074Z,1.10
2022-09-22T16:42:23.542Z,1.20
2022-09-22T16:46:27.080Z,1.10
2022-09-22T16:50:28.330Z,1.00
2022-09-22T16:54:29.738Z,1.33
2022-09-22T16:58:31.226Z,1.27
2022-09-22T17:02:33.799Z,1.13
2022-09-22T17:06:35.203Z,1.20
2022-09-22T17:10:36.426Z,1.30
2022-09-22T17:14:37.666Z,1.30
2022-09-22T17:18:40.254Z,1.50
2022-09-22T17:22:41.511Z,1.30
2022-09-22T17:26:43.817Z,1.50
2022-09-22T17:30:53.900Z,1.43
2022-09-22T17:34:56.455Z,1.40
2022-09-22T17:38:58.135Z,1.40
2022-09-22T17:42:59.932Z,1.30
2022-09-22T17:47:01.189Z,1.30
2022-09-22T17:51:03.943Z,1.63
2022-09-22T17:55:08.307Z,1.20
2022-09-22T17:59:09.593Z,1.30
2022-09-22T18:03:10.877Z,1.40
2022-09-22T18:07:14.667Z,1.27
2022-09-22T18:11:15.899Z,1.50
2022-09-22T18:15:17.923Z,1.40
2022-09-22T18:19:19.158Z,1.50
2022-09-22T18:23:23.070Z,1.60
2022-09-22T18:27:26.782Z,1.70
2022-09-22T18:31:28.188Z,1.50
2022-09-22T18:35:29.618Z,1.60
2022-09-22T18:39:32.185Z,1.70
2022-09-22T18:43:33.562Z,1.70
2022-09-22T18:47:34.798Z,2.00
2022-09-22T18:51:37.189Z,2.00
2022-09-22T18:55:39.784Z,2.50
2022-09-22T18:59:41.093Z,3.47
2022-09-22T19:03:42.445Z,3.13
2022-09-22T19:07:44.477Z,5.00
2022-09-22T19:11:47.437Z,6.40
2022-09-22T19:15:48.731Z,5.87
2022-09-22T19:19:50.176Z,8.53
2022-09-22T19:23:51.394Z,10.23
2022-09-22T19:27:54.189Z,14.93
2022-09-22T19:31:55.434Z,16.83
2022-09-22T19:35:56.677Z,16.13
2022-09-22T19:39:57.926Z,8.77
2022-09-22T19:44:00.666Z,5.57
2022-09-22T19:48:01.970Z,4.37
2022-09-22T19:52:03.203Z,2.43
2022-09-22T19:56:04.802Z,2.23
2022-09-22T20:00:08.317Z,1.80
2022-09-22T20:04:12.588Z,1.40
2022-09-22T20:08:13.963Z,1.50
2022-09-22T20:12:15.354Z,1.10
2022-09-22T20:16:17.923Z,1.07
2022-09-22T20:20:20.204Z,0.80
2022-09-22T20:24:22.497Z,1.10
2022-09-22T20:28:23.733Z,1.10
2022-09-22T20:32:26.907Z,1.00
2022-09-22T20:36:28.181Z,1.20
2022-09-22T20:40:29.624Z,1.20
2022-09-22T20:44:31.106Z,1.00
2022-09-22T20:48:33.844Z,1.10
2022-09-22T20:52:35.559Z,1.03
2022-09-22T20:56:40.789Z,1.40
2022-09-22T21:00:47.604Z,1.23
2022-09-22T21:04:50.237Z,1.40
2022-09-22T21:08:51.468Z,1.07
2022-09-22T21:12:52.724Z,1.00
2022-09-22T21:16:53.928Z,1.20
2022-09-22T21:20:56.541Z,1.00
2022-09-22T21:24:57.824Z,1.30
2022-09-22T21:28:59.692Z,1.00
2022-09-22T21:33:01.204Z,1.30
2022-09-22T21:37:03.940Z,1.00
2022-09-22T21:41:06.144Z,1.20
2022-09-22T21:45:08.093Z,1.17
2022-09-22T21:49:09.924Z,1.27
2022-09-22T21:53:12.512Z,1.00
2022-09-22T21:57:13.915Z,1.17
2022-09-22T22:01:16.323Z,1.30
2022-09-22T22:05:17.859Z,1.43
2022-09-22T22:09:21.024Z,1.53
2022-09-22T22:13:22.447Z,1.50
2022-09-22T22:17:23.840Z,1.80
2022-09-22T22:21:25.680Z,1.67
2022-09-22T22:25:28.435Z,1.50
2022-09-22T22:29:30.079Z,1.57
2022-09-22T22:33:31.615Z,1.90
2022-09-22T22:37:33.055Z,1.60
2022-09-22T22:41:35.843Z,2.47
2022-09-22T22:45:37.255Z,2.90
2022-09-22T22:49:38.643Z,2.60
2022-09-22T22:53:40.047Z,2.93
2022-09-22T22:57:42.856Z,2.93
2022-09-22T23:01:44.130Z,3.00
2022-09-22T23:05:54.500Z,3.50
2022-09-22T23:09:55.739Z,3.60
2022-09-22T23:13:59.537Z,3.77
2022-09-22T23:18:00.923Z,3.17
2022-09-22T23:22:02.127Z,3.77
2022-09-22T23:26:04.107Z,3.30
2022-09-22T23:30:07.643Z,3.40
2022-09-22T23:34:09.085Z,2.77
2022-09-22T23:38:14.135Z,2.63
2022-09-22T23:42:18.005Z,2.40
2022-09-22T23:46:20.842Z,2.10
2022-09-22T23:50:22.144Z,1.87
2022-09-22T23:54:23.555Z,2.37
2022-09-22T23:58:24.952Z,2.10
